createdAt,value
2022-10-08T00:01:24.205Z,10.60
2022-10-08T00:03:53.194Z,8.67
2022-10-08T00:06:22.013Z,11.70
2022-10-08T00:08:53.906Z,8.83
2022-10-08T00:11:22.931Z,13.23
2022-10-08T00:13:51.700Z,13.00
2022-10-08T00:16:21.873Z,10.03
2022-10-08T00:18:50.463Z,7.67
2022-10-08T00:21:20.883Z,5.87
2022-10-08T00:23:49.628Z,7.33
2022-10-08T00:26:20.392Z,11.27
2022-10-08T00:28:48.576Z,8.10
2022-10-08T00:31:17.947Z,7.67
2022-10-08T00:33:46.029Z,8.43
2022-10-08T00:36:14.476Z,8.53
2022-10-08T00:38:42.476Z,8.07
2022-10-08T00:41:18.127Z,7.20
2022-10-08T00:43:48.309Z,10.47
2022-10-08T00:46:21.255Z,7.57
2022-10-08T00:48:49.308Z,8.13
2022-10-08T00:51:17.348Z,7.70
2022-10-08T00:53:45.407Z,5.60
2022-10-08T00:56:13.546Z,9.67
2022-10-08T00:58:43.257Z,5.77
2022-10-08T01:01:13.934Z,6.57
2022-10-08T01:03:42.001Z,6.03
2022-10-08T01:06:16.167Z,6.10
2022-10-08T01:08:49.009Z,5.97
2022-10-08T01:11:22.910Z,9.17
2022-10-08T01:13:57.620Z,6.83
2022-10-08T01:16:32.080Z,7.40
2022-10-08T01:19:05.433Z,7.47
2022-10-08T01:21:38.158Z,8.97
2022-10-08T01:24:18.526Z,8.70
2022-10-08T01:26:58.926Z,4.93
2022-10-08T01:29:29.897Z,8.77
2022-10-08T01:32:03.518Z,7.43
2022-10-08T01:34:33.460Z,6.47
2022-10-08T01:37:03.381Z,6.77
2022-10-08T01:39:32.900Z,5.83
2022-10-08T01:42:03.458Z,7.07
2022-10-08T01:44:34.260Z,6.07
2022-10-08T01:47:04.942Z,7.40
2022-10-08T01:49:35.807Z,5.23
2022-10-08T01:52:07.989Z,12.77
2022-10-08T01:54:36.822Z,5.17
2022-10-08T01:57:06.523Z,6.10
2022-10-08T01:59:38.339Z,6.67
2022-10-08T02:02:09.566Z,7.80
2022-10-08T02:04:37.872Z,7.03
2022-10-08T02:07:07.772Z,7.40
2022-10-08T02:09:37.256Z,7.97
2022-10-08T02:12:05.978Z,8.40
2022-10-08T02:14:36.385Z,6.90
2022-10-08T02:17:08.835Z,8.00
2022-10-08T02:19:43.674Z,5.23
2022-10-08T02:22:12.515Z,5.77
2022-10-08T02:24:43.297Z,8.80
2022-10-08T02:27:12.889Z,4.50
2022-10-08T02:29:43.925Z,7.87
2022-10-08T02:32:15.448Z,5.53
2022-10-08T02:34:47.065Z,7.30
2022-10-08T02:37:16.655Z,8.03
2022-10-08T02:39:48.178Z,8.37
2022-10-08T02:42:18.623Z,5.77
2022-10-08T02:44:51.113Z,8.53
2022-10-08T02:47:20.935Z,7.87
2022-10-08T02:49:52.131Z,9.20
2022-10-08T02:52:20.312Z,7.27
2022-10-08T02:54:50.398Z,5.83
2022-10-08T02:57:20.046Z,8.13
2022-10-08T02:59:49.525Z,10.07
2022-10-08T03:02:20.887Z,6.40
2022-10-08T03:04:52.635Z,9.33
2022-10-08T03:07:23.181Z,8.40
2022-10-08T03:09:52.970Z,6.57
2022-10-08T03:12:21.281Z,7.53
2022-10-08T03:14:52.433Z,8.67
2022-10-08T03:17:23.922Z,7.30
2022-10-08T03:19:52.235Z,6.10
2022-10-08T03:22:20.514Z,8.60
2022-10-08T03:24:48.525Z,7.67
2022-10-08T03:27:16.542Z,8.70
2022-10-08T03:29:44.517Z,6.17
2022-10-08T03:32:13.950Z,6.33
2022-10-08T03:34:41.916Z,7.43
2022-10-08T03:37:09.930Z,5.00
2022-10-08T03:39:37.914Z,10.33
2022-10-08T03:42:06.081Z,9.70
2022-10-08T03:44:34.096Z,11.33
2022-10-08T03:47:02.118Z,6.20
2022-10-08T03:49:31.559Z,5.30
2022-10-08T03:51:59.560Z,5.70
2022-10-08T03:54:27.580Z,6.63
2022-10-08T03:56:55.550Z,8.87
2022-10-08T03:59:23.650Z,6.33
2022-10-08T04:01:51.711Z,9.13
2022-10-08T04:04:24.619Z,7.07
2022-10-08T04:06:55.042Z,5.90
2022-10-08T04:09:23.071Z,9.20
2022-10-08T04:11:51.060Z,8.87
2022-10-08T04:14:19.150Z,7.63
2022-10-08T04:16:48.364Z,6.47
2022-10-08T04:19:17.679Z,8.30
2022-10-08T04:21:45.761Z,5.33
2022-10-08T04:24:15.633Z,6.73
2022-10-08T04:26:43.784Z,7.33
2022-10-08T04:29:12.730Z,7.00
2022-10-08T04:31:41.139Z,7.40
2022-10-08T04:34:12.792Z,7.53
2022-10-08T04:36:41.531Z,6.00
2022-10-08T04:39:11.170Z,8.30
2022-10-08T04:41:40.827Z,4.77
2022-10-08T04:44:08.876Z,7.27
2022-10-08T04:46:36.905Z,6.70
2022-10-08T04:49:05.028Z,5.07
2022-10-08T04:51:33.459Z,5.67
2022-10-08T04:54:02.261Z,6.13
2022-10-08T04:56:30.851Z,7.13
2022-10-08T04:59:03.695Z,6.50
2022-10-08T05:01:32.204Z,4.33
2022-10-08T05:04:00.514Z,7.50
2022-10-08T05:06:30.335Z,6.50
2022-10-08T05:08:59.025Z,7.53
2022-10-08T05:11:27.847Z,5.07
2022-10-08T05:13:56.836Z,6.00
2022-10-08T05:16:26.665Z,4.80
2022-10-08T05:18:55.146Z,8.63
2022-10-08T05:21:24.253Z,5.93
2022-10-08T05:23:55.325Z,9.53
2022-10-08T05:26:41.615Z,7.07
2022-10-08T05:29:12.708Z,4.43
2022-10-08T05:31:42.137Z,8.23
2022-10-08T05:34:10.336Z,9.93
2022-10-08T05:36:38.334Z,4.37
2022-10-08T05:39:07.045Z,5.70
2022-10-08T05:41:36.994Z,7.40
2022-10-08T05:44:05.553Z,4.40
2022-10-08T05:46:34.722Z,7.23
2022-10-08T05:49:05.096Z,9.70
2022-10-08T05:51:33.370Z,9.93
2022-10-08T05:54:01.623Z,11.40
2022-10-08T05:56:31.786Z,7.67
2022-10-08T05:58:59.846Z,9.23
2022-10-08T06:01:29.248Z,9.90
2022-10-08T06:03:57.834Z,5.43
2022-10-08T06:06:27.489Z,6.90
2022-10-08T06:08:56.135Z,7.00
2022-10-08T06:11:24.186Z,7.83
2022-10-08T06:13:53.520Z,11.63
2022-10-08T06:16:21.726Z,6.53
2022-10-08T06:18:49.808Z,8.43
2022-10-08T06:21:18.515Z,12.90
2022-10-08T06:23:49.037Z,9.83
2022-10-08T06:26:18.051Z,7.40
2022-10-08T06:28:46.480Z,9.30
2022-10-08T06:31:14.644Z,10.07
2022-10-08T06:33:42.682Z,6.53
2022-10-08T06:36:15.293Z,11.13
2022-10-08T06:38:43.277Z,7.67
2022-10-08T06:41:12.712Z,11.13
2022-10-08T06:43:40.757Z,7.37
2022-10-08T06:46:08.736Z,8.30
2022-10-08T06:48:36.719Z,7.60
2022-10-08T06:51:06.277Z,9.37
2022-10-08T06:53:34.504Z,8.37
2022-10-08T06:56:03.140Z,7.83
2022-10-08T06:58:32.913Z,14.43
2022-10-08T07:01:05.211Z,9.87
2022-10-08T07:03:33.348Z,14.57
2022-10-08T07:06:01.920Z,11.07
2022-10-08T07:08:30.185Z,7.67
2022-10-08T07:11:04.417Z,7.43
2022-10-08T07:13:33.833Z,14.67
2022-10-08T07:16:05.454Z,14.23
2022-10-08T07:18:33.947Z,13.00
2022-10-08T07:21:01.972Z,12.23
2022-10-08T07:23:30.856Z,10.93
2022-10-08T07:25:59.770Z,14.87
2022-10-08T07:28:29.279Z,14.37
2022-10-08T07:30:58.853Z,10.43
2022-10-08T07:33:26.814Z,11.43
2022-10-08T07:35:54.768Z,11.73
2022-10-08T07:38:22.785Z,13.53
2022-10-08T07:40:51.632Z,14.27
2022-10-08T07:43:19.948Z,10.17
2022-10-08T07:45:48.082Z,13.57
2022-10-08T07:48:20.025Z,12.93
2022-10-08T07:50:48.045Z,13.97
2022-10-08T07:53:16.893Z,18.87
2022-10-08T07:55:44.920Z,11.03
2022-10-08T07:58:13.894Z,21.23
2022-10-08T08:00:42.109Z,17.53
2022-10-08T08:03:13.734Z,17.33
2022-10-08T08:05:43.184Z,16.83
2022-10-08T08:08:12.191Z,23.80
2022-10-08T08:10:40.247Z,15.97
2022-10-08T08:13:08.306Z,12.73
2022-10-08T08:15:36.295Z,14.90
2022-10-08T08:18:04.326Z,15.67
2022-10-08T08:20:32.352Z,12.77
2022-10-08T08:23:01.828Z,14.17
2022-10-08T08:25:29.831Z,11.07
2022-10-08T08:27:57.871Z,13.80
2022-10-08T08:30:25.907Z,18.00
2022-10-08T08:32:53.899Z,13.50
2022-10-08T08:35:21.933Z,12.20
2022-10-08T08:37:49.936Z,13.33
2022-10-08T08:40:19.445Z,20.40
2022-10-08T08:42:51.251Z,14.23
2022-10-08T08:45:45.261Z,11.13
2022-10-08T08:48:18.375Z,12.60
2022-10-08T08:50:48.874Z,13.40
2022-10-08T08:53:17.275Z,16.57
2022-10-08T08:55:47.715Z,12.27
2022-10-08T08:58:25.890Z,14.03
2022-10-08T09:00:56.913Z,11.47
2022-10-08T09:03:28.273Z,13.17
2022-10-08T09:05:57.926Z,12.00
2022-10-08T09:08:30.003Z,12.33
2022-10-08T09:11:00.044Z,11.53
2022-10-08T09:13:30.423Z,10.80
2022-10-08T09:15:58.743Z,12.27
2022-10-08T09:18:26.867Z,14.33
2022-10-08T09:20:54.915Z,15.17
2022-10-08T09:23:23.851Z,12.40
2022-10-08T09:25:54.771Z,12.50
2022-10-08T09:28:40.979Z,9.63
2022-10-08T09:31:24.162Z,10.37
2022-10-08T09:33:56.337Z,11.43
2022-10-08T09:36:35.873Z,14.87
2022-10-08T09:39:05.136Z,15.33
2022-10-08T09:41:33.303Z,10.50
2022-10-08T09:44:16.728Z,7.60
2022-10-08T09:46:45.015Z,9.13
2022-10-08T09:49:25.572Z,9.20
2022-10-08T09:51:53.887Z,13.30
2022-10-08T09:54:23.005Z,10.57
2022-10-08T09:56:53.843Z,9.80
2022-10-08T09:59:24.938Z,10.20
2022-10-08T10:01:53.317Z,12.03
2022-10-08T10:04:32.402Z,5.73
2022-10-08T10:07:00.910Z,11.10
2022-10-08T10:09:35.878Z,11.00
2022-10-08T10:12:06.197Z,6.33
2022-10-08T10:14:41.896Z,10.47
2022-10-08T10:17:12.872Z,8.77
2022-10-08T10:19:44.210Z,8.57
2022-10-08T10:22:14.575Z,6.90
2022-10-08T10:24:50.887Z,8.87
2022-10-08T10:27:21.686Z,5.03
2022-10-08T10:29:54.674Z,7.23
2022-10-08T10:32:25.263Z,5.40
2022-10-08T10:35:02.876Z,11.07
2022-10-08T10:37:34.660Z,11.13
2022-10-08T10:40:15.252Z,8.50
2022-10-08T10:42:48.546Z,8.10
2022-10-08T10:45:19.905Z,7.27
2022-10-08T10:47:47.976Z,6.30
2022-10-08T10:50:16.517Z,6.40
2022-10-08T10:52:51.071Z,8.67
2022-10-08T10:55:21.892Z,5.53
2022-10-08T10:58:07.449Z,8.80
2022-10-08T11:00:42.395Z,7.63
2022-10-08T11:03:13.254Z,8.50
2022-10-08T11:05:44.629Z,6.50
2022-10-08T11:08:16.957Z,6.10
2022-10-08T11:10:49.553Z,4.67
2022-10-08T11:13:26.695Z,4.40
2022-10-08T11:16:01.687Z,7.77
2022-10-08T11:18:32.502Z,4.53
2022-10-08T11:21:06.787Z,5.60
2022-10-08T11:23:41.259Z,4.73
2022-10-08T11:26:21.885Z,7.73
2022-10-08T11:28:53.456Z,7.57
2022-10-08T11:31:26.211Z,6.70
2022-10-08T11:33:56.443Z,6.47
2022-10-08T11:36:33.042Z,6.33
2022-10-08T11:39:06.049Z,5.37
2022-10-08T11:41:39.189Z,5.30
2022-10-08T11:44:10.494Z,6.07
2022-10-08T11:46:39.999Z,6.77
2022-10-08T11:49:23.174Z,10.20
2022-10-08T11:51:52.272Z,6.43
2022-10-08T11:54:29.317Z,5.93
2022-10-08T12:00:39.541Z,4.77
2022-10-08T12:03:21.432Z,5.27
2022-10-08T12:05:52.603Z,4.17
2022-10-08T12:08:39.316Z,6.50
2022-10-08T12:11:22.105Z,6.53
2022-10-08T12:14:12.026Z,6.67
2022-10-08T12:16:58.455Z,5.77
2022-10-08T12:19:44.881Z,6.47
2022-10-08T12:22:27.639Z,5.50
2022-10-08T12:24:57.743Z,5.37
2022-10-08T12:27:27.152Z,7.70
2022-10-08T12:29:55.964Z,4.47
2022-10-08T12:32:24.330Z,6.67
2022-10-08T12:34:52.835Z,4.37
2022-10-08T12:37:29.641Z,3.53
2022-10-08T12:40:01.584Z,4.83
2022-10-08T12:42:32.704Z,4.17
2022-10-08T12:45:04.865Z,3.77
2022-10-08T12:47:37.786Z,5.20
2022-10-08T12:50:07.390Z,4.37
2022-10-08T12:52:36.456Z,5.00
2022-10-08T12:55:06.444Z,3.93
2022-10-08T12:57:36.114Z,3.63
2022-10-08T13:00:07.820Z,2.83
2022-10-08T13:02:38.025Z,9.37
2022-10-08T13:05:06.904Z,3.93
2022-10-08T13:07:36.234Z,4.90
2022-10-08T13:10:18.570Z,4.00
2022-10-08T13:12:59.852Z,3.27
2022-10-08T13:15:27.879Z,4.00
2022-10-08T13:17:55.916Z,2.10
2022-10-08T13:20:24.804Z,2.80
2022-10-08T13:22:53.099Z,6.83
2022-10-08T13:28:59.827Z,7.20
2022-10-08T13:31:28.087Z,3.67
2022-10-08T13:33:56.066Z,3.20
2022-10-08T13:36:24.490Z,3.73
2022-10-08T13:38:52.591Z,4.20
2022-10-08T13:41:23.815Z,5.60
2022-10-08T13:43:53.368Z,3.63
2022-10-08T13:46:21.415Z,3.63
2022-10-08T13:48:49.426Z,3.33
2022-10-08T13:51:17.402Z,2.23
2022-10-08T13:53:45.927Z,5.20
2022-10-08T13:56:14.098Z,4.60
2022-10-08T13:58:42.010Z,8.27
2022-10-08T14:01:11.402Z,2.47
2022-10-08T14:03:39.431Z,2.80
2022-10-08T14:06:07.632Z,2.83
2022-10-08T14:08:36.210Z,3.70
2022-10-08T14:11:04.310Z,2.07
2022-10-08T14:13:32.244Z,4.23
2022-10-08T14:16:00.218Z,7.47
2022-10-08T14:18:29.594Z,10.33
2022-10-08T14:20:57.497Z,3.33
2022-10-08T14:23:25.632Z,4.57
2022-10-08T14:25:54.096Z,4.97
2022-10-08T14:28:22.086Z,4.27
2022-10-08T14:30:50.166Z,3.63
2022-10-08T14:33:18.219Z,5.63
2022-10-08T14:35:47.648Z,2.20
2022-10-08T14:38:15.590Z,3.67
2022-10-08T14:40:43.495Z,2.23
2022-10-08T14:43:11.439Z,3.63
2022-10-08T14:45:39.390Z,4.03
2022-10-08T14:48:07.330Z,2.70
2022-10-08T14:50:35.242Z,1.40
2022-10-08T14:53:04.588Z,2.67
2022-10-08T14:55:40.945Z,8.27
2022-10-08T14:58:17.225Z,2.40
2022-10-08T15:00:45.303Z,2.60
2022-10-08T15:03:13.208Z,4.67
2022-10-08T15:05:41.148Z,2.73
2022-10-08T15:08:10.628Z,3.47
2022-10-08T15:10:38.565Z,3.90
2022-10-08T15:13:06.512Z,4.87
2022-10-08T15:15:34.417Z,3.73
2022-10-08T15:18:02.443Z,3.57
2022-10-08T15:20:34.449Z,3.23
2022-10-08T15:23:02.416Z,4.90
2022-10-08T15:25:31.377Z,2.20
2022-10-08T15:28:00.755Z,5.20
2022-10-08T15:30:28.738Z,3.63
2022-10-08T15:32:56.680Z,2.70
2022-10-08T15:35:24.624Z,1.53
2022-10-08T15:37:52.569Z,2.30
2022-10-08T15:40:20.482Z,1.93
2022-10-08T15:42:52.236Z,3.20
2022-10-08T15:45:21.590Z,7.67
2022-10-08T15:47:49.943Z,4.73
2022-10-08T15:50:17.981Z,5.93
2022-10-08T15:52:46.647Z,3.20
2022-10-08T15:55:14.703Z,2.17
2022-10-08T15:57:42.779Z,5.77
2022-10-08T16:00:11.224Z,4.37
2022-10-08T16:02:40.744Z,2.87
2022-10-08T16:05:09.076Z,2.83
2022-10-08T16:07:37.008Z,3.13
2022-10-08T16:10:05.132Z,2.27
2022-10-08T16:12:33.146Z,5.50
2022-10-08T16:15:01.052Z,4.10
2022-10-08T16:17:28.939Z,2.90
2022-10-08T16:19:58.266Z,6.90
2022-10-08T16:22:26.162Z,3.50
2022-10-08T16:24:54.087Z,4.17
2022-10-08T16:27:22.116Z,4.20
2022-10-08T16:29:50.032Z,3.23
2022-10-08T16:32:17.933Z,3.13
2022-10-08T16:34:53.287Z,4.27
2022-10-08T16:37:22.921Z,2.43
2022-10-08T16:39:50.864Z,2.37
2022-10-08T16:42:18.788Z,4.50
2022-10-08T16:44:46.713Z,2.30
2022-10-08T16:47:14.701Z,5.77
2022-10-08T16:49:42.642Z,4.07
2022-10-08T16:52:11.346Z,4.63
2022-10-08T16:54:40.733Z,6.10
2022-10-08T16:57:08.677Z,3.87
2022-10-08T16:59:36.560Z,4.47
2022-10-08T17:02:04.573Z,3.50
2022-10-08T17:04:39.149Z,4.40
2022-10-08T17:07:07.549Z,7.60
2022-10-08T17:09:35.661Z,4.77
2022-10-08T17:12:05.193Z,4.40
2022-10-08T17:14:33.408Z,3.73
2022-10-08T17:17:01.378Z,3.23
2022-10-08T17:19:29.492Z,3.87
2022-10-08T17:21:57.407Z,3.47
2022-10-08T17:24:25.367Z,8.70
2022-10-08T17:26:53.238Z,4.97
2022-10-08T17:29:22.669Z,3.20
2022-10-08T17:31:50.620Z,2.40
2022-10-08T17:34:18.521Z,6.47
2022-10-08T17:36:47.299Z,4.93
2022-10-08T17:39:15.428Z,2.07
2022-10-08T17:41:44.163Z,10.00
2022-10-08T17:44:12.306Z,3.23
2022-10-08T17:46:42.976Z,3.93
2022-10-08T17:49:11.061Z,5.77
2022-10-08T17:51:39.236Z,5.33
2022-10-08T17:54:09.248Z,5.17
2022-10-08T17:56:37.162Z,6.97
2022-10-08T17:59:05.503Z,6.03
2022-10-08T18:01:34.152Z,4.47
2022-10-08T18:04:05.311Z,3.93
2022-10-08T18:06:33.659Z,5.67
2022-10-08T18:09:02.423Z,6.30
2022-10-08T18:11:31.408Z,5.67
2022-10-08T18:13:59.406Z,3.50
2022-10-08T18:16:27.339Z,3.67
2022-10-08T18:18:55.463Z,5.13
2022-10-08T18:21:24.850Z,5.17
2022-10-08T18:23:52.897Z,8.37
2022-10-08T18:26:21.666Z,3.37
2022-10-08T18:28:51.027Z,5.77
2022-10-08T18:31:20.271Z,8.43
2022-10-08T18:33:49.539Z,4.07
2022-10-08T18:36:18.681Z,4.30
2022-10-08T18:38:49.032Z,7.50
2022-10-08T18:41:17.539Z,5.07
2022-10-08T18:43:46.098Z,4.30
2022-10-08T18:46:14.214Z,3.77
2022-10-08T18:48:42.295Z,4.30
2022-10-08T18:51:11.279Z,8.80
2022-10-08T18:53:40.180Z,6.77
2022-10-08T18:56:10.180Z,6.10
2022-10-08T18:58:38.251Z,3.50
2022-10-08T19:01:06.840Z,6.17
2022-10-08T19:03:34.976Z,4.97
2022-10-08T19:06:02.881Z,3.60
2022-10-08T19:08:30.777Z,5.53
2022-10-08T19:10:58.708Z,4.87
2022-10-08T19:13:28.011Z,7.47
2022-10-08T19:15:55.951Z,4.10
2022-10-08T19:18:23.952Z,4.20
2022-10-08T19:20:51.853Z,4.67
2022-10-08T19:23:19.762Z,4.73
2022-10-08T19:25:47.852Z,3.90
2022-10-08T19:28:15.770Z,8.20
2022-10-08T19:30:46.693Z,5.87
2022-10-08T19:33:14.650Z,4.33
2022-10-08T19:35:42.579Z,7.57
2022-10-08T19:38:10.611Z,3.07
2022-10-08T19:40:38.531Z,6.97
2022-10-08T19:43:06.494Z,4.47
2022-10-08T19:45:35.501Z,5.50
2022-10-08T19:48:05.398Z,6.80
2022-10-08T19:50:33.453Z,4.67
2022-10-08T19:53:01.378Z,5.70
2022-10-08T19:55:29.382Z,4.97
2022-10-08T19:57:57.401Z,5.23
2022-10-08T20:00:25.344Z,5.63
2022-10-08T20:02:53.442Z,3.93
2022-10-08T20:05:22.950Z,5.37
2022-10-08T20:07:50.953Z,6.07
2022-10-08T20:10:18.920Z,10.17
2022-10-08T20:12:47.029Z,3.47
2022-10-08T20:15:15.164Z,6.97
2022-10-08T20:17:43.107Z,4.67
2022-10-08T20:20:31.549Z,4.67
2022-10-08T20:23:00.593Z,6.67
2022-10-08T20:25:28.594Z,7.33
2022-10-08T20:27:56.494Z,8.10
2022-10-08T20:30:24.412Z,2.77
2022-10-08T20:32:52.341Z,5.10
2022-10-08T20:35:20.251Z,4.57
2022-10-08T20:37:48.167Z,4.13
2022-10-08T20:40:17.923Z,3.53
2022-10-08T20:42:46.459Z,3.43
2022-10-08T20:45:14.654Z,5.43
2022-10-08T20:47:42.720Z,3.70
2022-10-08T20:50:11.222Z,4.07
2022-10-08T20:52:39.286Z,2.20
2022-10-08T20:55:07.835Z,3.80
2022-10-08T20:57:37.377Z,4.13
2022-10-08T21:00:05.746Z,3.73
2022-10-08T21:02:33.666Z,5.10
2022-10-08T21:05:01.596Z,3.63
2022-10-08T21:07:29.556Z,2.47
2022-10-08T21:09:57.803Z,3.03
2022-10-08T21:12:25.923Z,3.63
2022-10-08T21:14:55.291Z,4.47
2022-10-08T21:17:23.241Z,6.10
2022-10-08T21:19:51.160Z,4.60
2022-10-08T21:22:19.098Z,2.73
2022-10-08T21:24:46.983Z,5.67
2022-10-08T21:27:15.539Z,3.17
2022-10-08T21:29:43.460Z,5.00
2022-10-08T21:32:13.647Z,3.20
2022-10-08T21:34:41.564Z,2.40
2022-10-08T21:37:13.684Z,3.73
2022-10-08T21:39:41.941Z,6.20
2022-10-08T21:42:09.845Z,4.87
2022-10-08T21:44:37.735Z,2.77
2022-10-08T21:47:05.721Z,2.87
2022-10-08T21:49:35.083Z,1.73
2022-10-08T21:52:02.981Z,3.83
2022-10-08T21:54:30.882Z,4.07
2022-10-08T21:56:58.810Z,3.00
2022-10-08T21:59:27.087Z,1.90
2022-10-08T22:01:55.060Z,2.30
2022-10-08T22:04:23.820Z,2.47
2022-10-08T22:06:54.253Z,2.47
2022-10-08T22:09:23.106Z,1.60
2022-10-08T22:11:51.129Z,6.90
2022-10-08T22:14:19.698Z,3.67
2022-10-08T22:16:47.987Z,1.30
2022-10-08T22:19:16.230Z,1.27
2022-10-08T22:21:44.473Z,4.80
2022-10-08T22:24:14.011Z,3.47
2022-10-08T22:26:43.343Z,3.50
2022-10-08T22:29:11.697Z,1.80
2022-10-08T22:31:40.038Z,2.17
2022-10-08T22:34:08.075Z,2.63
2022-10-08T22:36:38.755Z,2.17
2022-10-08T22:39:06.688Z,4.60
2022-10-08T22:41:36.027Z,2.33
2022-10-08T22:44:04.038Z,2.20
2022-10-08T22:46:32.476Z,2.80
2022-10-08T22:49:01.325Z,5.87
2022-10-08T22:51:29.314Z,4.43
2022-10-08T22:53:57.476Z,2.97
2022-10-08T22:56:26.691Z,4.13
2022-10-08T22:58:56.130Z,1.50
2022-10-08T23:01:24.672Z,2.23
2022-10-08T23:03:52.825Z,2.27
2022-10-08T23:06:21.384Z,2.37
2022-10-08T23:08:50.312Z,1.67
2022-10-08T23:11:18.394Z,3.40
2022-10-08T23:13:46.740Z,1.20
2022-10-08T23:16:16.429Z,2.53
2022-10-08T23:18:45.046Z,1.47
2022-10-08T23:21:14.572Z,2.33
2022-10-08T23:23:42.986Z,2.60
2022-10-08T23:26:10.959Z,2.87
2022-10-08T23:28:39.714Z,3.00
2022-10-08T23:31:08.592Z,1.63
2022-10-08T23:33:38.628Z,1.17
2022-10-08T23:36:07.226Z,2.90
2022-10-08T23:38:35.225Z,2.43
2022-10-08T23:41:03.719Z,2.47
2022-10-08T23:43:34.915Z,1.80
2022-10-08T23:46:02.951Z,2.47
2022-10-08T23:48:30.941Z,1.00
2022-10-08T23:51:00.267Z,2.73
2022-10-08T23:53:28.378Z,2.23
2022-10-08T23:55:56.268Z,3.13
2022-10-08T23:58:24.354Z,2.00
